sensor_id;sensor_type;location;lat;lon;timestamp;temperature;humidity
13642;DHT22;6894;52.196;9.904;2022-12-18T00:00:44;-3.10;1.00
13642;DHT22;6894;52.196;9.904;2022-12-18T00:03:12;-3.50;1.00
13642;DHT22;6894;52.196;9.904;2022-12-18T00:05:46;-3.50;93.10
13642;DHT22;6894;52.196;9.904;2022-12-18T00:08:13;-3.50;99.90
13642;DHT22;6894;52.196;9.904;2022-12-18T00:10:39;-3.40;99.90
13642;DHT22;6894;52.196;9.904;2022-12-18T00:13:06;-3.40;99.90
13642;DHT22;6894;52.196;9.904;2022-12-18T00:15:33;-3.30;99.90
13642;DHT22;6894;52.196;9.904;2022-12-18T00:18:01;-3.30;99.90
13642;DHT22;6894;52.196;9.904;2022-12-18T00:20:28;-3.20;99.90
13642;DHT22;6894;52.196;9.904;2022-12-18T00:22:55;-3.20;99.90
13642;DHT22;6894;52.196;9.904;2022-12-18T00:25:22;-3.20;99.90
13642;DHT22;6894;52.196;9.904;2022-12-18T00:27:49;-3.20;92.30
13642;DHT22;6894;52.196;9.904;2022-12-18T00:30:16;-3.20;48.10
13642;DHT22;6894;52.196;9.904;2022-12-18T00:32:43;-3.20;1.00
13642;DHT22;6894;52.196;9.904;2022-12-18T00:35:11;-3.20;1.00
13642;DHT22;6894;52.196;9.904;2022-12-18T00:37:38;-3.30;1.00
13642;DHT22;6894;52.196;9.904;2022-12-18T00:40:05;-3.30;1.00
13642;DHT22;6894;52.196;9.904;2022-12-18T00:42:35;-3.30;1.00
13642;DHT22;6894;52.196;9.904;2022-12-18T00:45:20;-3.40;1.00
13642;DHT22;6894;52.196;9.904;2022-12-18T00:47:46;-3.50;1.00
13642;DHT22;6894;52.196;9.904;2022-12-18T00:50:14;-3.60;24.80
13642;DHT22;6894;52.196;9.904;2022-12-18T00:52:41;-3.70;92.10
13642;DHT22;6894;52.196;9.904;2022-12-18T00:55:09;-3.70;99.90
13642;DHT22;6894;52.196;9.904;2022-12-18T00:57:36;-3.80;99.90
13642;DHT22;6894;52.196;9.904;2022-12-18T01:00:04;-3.80;99.90
13642;DHT22;6894;52.196;9.904;2022-12-18T01:02:31;-3.80;99.90
13642;DHT22;6894;52.196;9.904;2022-12-18T01:04:58;-3.80;1.00
13642;DHT22;6894;52.196;9.904;2022-12-18T01:07:26;-3.80;1.00
13642;DHT22;6894;52.196;9.904;2022-12-18T01:09:53;-3.90;1.00
13642;DHT22;6894;52.196;9.904;2022-12-18T01:12:19;-3.80;1.00
13642;DHT22;6894;52.196;9.904;2022-12-18T01:14:46;-3.90;1.00
13642;DHT22;6894;52.196;9.904;2022-12-18T01:17:13;-3.90;1.00
13642;DHT22;6894;52.196;9.904;2022-12-18T01:19:40;-3.90;1.00
13642;DHT22;6894;52.196;9.904;2022-12-18T01:22:07;-4.00;1.00
13642;DHT22;6894;52.196;9.904;2022-12-18T01:24:35;-4.20;1.00
13642;DHT22;6894;52.196;9.904;2022-12-18T01:27:02;-4.20;1.00
13642;DHT22;6894;52.196;9.904;2022-12-18T01:29:29;-4.30;1.00
13642;DHT22;6894;52.196;9.904;2022-12-18T01:31:56;-4.30;1.00
13642;DHT22;6894;52.196;9.904;2022-12-18T01:34:23;-4.30;1.00
13642;DHT22;6894;52.196;9.904;2022-12-18T01:36:50;-4.20;1.00
13642;DHT22;6894;52.196;9.904;2022-12-18T01:39:18;-4.20;1.00
13642;DHT22;6894;52.196;9.904;2022-12-18T01:41:46;-4.10;1.00
13642;DHT22;6894;52.196;9.904;2022-12-18T01:45:06;-4.10;1.00
13642;DHT22;6894;52.196;9.904;2022-12-18T01:47:38;-4.00;1.00
13642;DHT22;6894;52.196;9.904;2022-12-18T01:50:09;-3.90;1.00
13642;DHT22;6894;52.196;9.904;2022-12-18T01:52:40;-3.90;1.00
13642;DHT22;6894;52.196;9.904;2022-12-18T01:55:08;-3.90;1.00
13642;DHT22;6894;52.196;9.904;2022-12-18T01:57:37;-3.90;1.00
13642;DHT22;6894;52.196;9.904;2022-12-18T02:00:07;-3.90;1.00
13642;DHT22;6894;52.196;9.904;2022-12-18T02:02:35;-3.90;1.00
13642;DHT22;6894;52.196;9.904;2022-12-18T02:05:03;-4.00;1.00
13642;DHT22;6894;52.196;9.904;2022-12-18T02:07:37;-4.00;1.00
13642;DHT22;6894;52.196;9.904;2022-12-18T02:10:13;-4.00;1.00
13642;DHT22;6894;52.196;9.904;2022-12-18T02:12:48;-3.80;1.00
13642;DHT22;6894;52.196;9.904;2022-12-18T02:15:20;-4.00;1.00
13642;DHT22;6894;52.196;9.904;2022-12-18T02:17:54;-4.00;1.00
13642;DHT22;6894;52.196;9.904;2022-12-18T02:20:24;-4.00;1.00
13642;DHT22;6894;52.196;9.904;2022-12-18T02:23:04;-4.00;1.00
13642;DHT22;6894;52.196;9.904;2022-12-18T02:28:16;-4.10;1.00
13642;DHT22;6894;52.196;9.904;2022-12-18T02:30:48;-4.10;1.00
13642;DHT22;6894;52.196;9.904;2022-12-18T02:33:16;-4.10;1.00
13642;DHT22;6894;52.196;9.904;2022-12-18T02:35:45;-4.10;1.00
13642;DHT22;6894;52.196;9.904;2022-12-18T02:38:14;-4.10;1.00
13642;DHT22;6894;52.196;9.904;2022-12-18T02:40:42;-4.10;1.00
13642;DHT22;6894;52.196;9.904;2022-12-18T02:43:10;-4.10;1.00
13642;DHT22;6894;52.196;9.904;2022-12-18T02:45:46;-4.00;1.00
13642;DHT22;6894;52.196;9.904;2022-12-18T02:48:13;-4.00;1.00
13642;DHT22;6894;52.196;9.904;2022-12-18T02:50:45;-4.10;1.00
13642;DHT22;6894;52.196;9.904;2022-12-18T02:53:17;-4.10;1.00
13642;DHT22;6894;52.196;9.904;2022-12-18T02:55:56;-4.00;1.00
13642;DHT22;6894;52.196;9.904;2022-12-18T02:58:30;-4.00;1.00
13642;DHT22;6894;52.196;9.904;2022-12-18T03:01:03;-4.00;1.00
13642;DHT22;6894;52.196;9.904;2022-12-18T03:03:36;-4.00;1.00
13642;DHT22;6894;52.196;9.904;2022-12-18T03:06:07;-3.90;1.00
13642;DHT22;6894;52.196;9.904;2022-12-18T03:08:38;-3.80;1.00
13642;DHT22;6894;52.196;9.904;2022-12-18T03:11:09;-3.80;1.00
13642;DHT22;6894;52.196;9.904;2022-12-18T03:13:38;-3.80;1.00
13642;DHT22;6894;52.196;9.904;2022-12-18T03:16:10;-3.80;1.00
13642;DHT22;6894;52.196;9.904;2022-12-18T03:18:42;-3.80;1.00
13642;DHT22;6894;52.196;9.904;2022-12-18T03:21:10;-3.70;1.00
13642;DHT22;6894;52.196;9.904;2022-12-18T03:23:42;-3.60;1.00
13642;DHT22;6894;52.196;9.904;2022-12-18T03:26:13;-3.60;1.00
13642;DHT22;6894;52.196;9.904;2022-12-18T03:28:45;-3.30;1.00
13642;DHT22;6894;52.196;9.904;2022-12-18T03:31:15;-3.50;1.00
13642;DHT22;6894;52.196;9.904;2022-12-18T03:33:45;-3.40;1.00
13642;DHT22;6894;52.196;9.904;2022-12-18T03:36:13;-3.40;1.00
13642;DHT22;6894;52.196;9.904;2022-12-18T03:38:40;-3.30;99.90
13642;DHT22;6894;52.196;9.904;2022-12-18T03:41:14;-3.30;99.90
13642;DHT22;6894;52.196;9.904;2022-12-18T03:43:49;-3.20;99.90
13642;DHT22;6894;52.196;9.904;2022-12-18T03:46:25;-3.20;99.90
13642;DHT22;6894;52.196;9.904;2022-12-18T03:48:58;-3.20;1.00
13642;DHT22;6894;52.196;9.904;2022-12-18T03:51:31;-2.70;1.00
13642;DHT22;6894;52.196;9.904;2022-12-18T03:54:03;-3.10;1.00
13642;DHT22;6894;52.196;9.904;2022-12-18T03:56:33;-2.80;1.00
13642;DHT22;6894;52.196;9.904;2022-12-18T03:59:03;-3.00;1.00
13642;DHT22;6894;52.196;9.904;2022-12-18T04:01:34;-3.00;1.00
13642;DHT22;6894;52.196;9.904;2022-12-18T04:04:03;-3.00;99.90
13642;DHT22;6894;52.196;9.904;2022-12-18T04:06:34;-2.90;99.90
13642;DHT22;6894;52.196;9.904;2022-12-18T04:09:02;-2.90;1.00
13642;DHT22;6894;52.196;9.904;2022-12-18T04:11:29;-3.00;1.00
13642;DHT22;6894;52.196;9.904;2022-12-18T04:13:56;-2.90;1.00
13642;DHT22;6894;52.196;9.904;2022-12-18T04:16:23;-2.90;1.00
13642;DHT22;6894;52.196;9.904;2022-12-18T04:18:51;-2.90;1.00
13642;DHT22;6894;52.196;9.904;2022-12-18T04:21:18;-3.20;1.00
13642;DHT22;6894;52.196;9.904;2022-12-18T04:23:45;-3.30;1.00
13642;DHT22;6894;52.196;9.904;2022-12-18T04:26:12;-3.10;1.00
13642;DHT22;6894;52.196;9.904;2022-12-18T04:28:38;-3.50;99.90
13642;DHT22;6894;52.196;9.904;2022-12-18T04:31:05;-3.60;1.00
13642;DHT22;6894;52.196;9.904;2022-12-18T04:33:32;-3.70;1.00
13642;DHT22;6894;52.196;9.904;2022-12-18T04:36:00;-3.70;1.00
13642;DHT22;6894;52.196;9.904;2022-12-18T04:38:27;-3.60;1.00
13642;DHT22;6894;52.196;9.904;2022-12-18T04:40:53;-3.90;1.00
13642;DHT22;6894;52.196;9.904;2022-12-18T04:43:20;-3.90;1.30
13642;DHT22;6894;52.196;9.904;2022-12-18T04:45:47;-4.00;66.20
13642;DHT22;6894;52.196;9.904;2022-12-18T04:48:14;-4.00;99.90
13642;DHT22;6894;52.196;9.904;2022-12-18T04:50:41;-3.90;99.90
13642;DHT22;6894;52.196;9.904;2022-12-18T04:53:09;-3.90;99.90
13642;DHT22;6894;52.196;9.904;2022-12-18T04:55:35;-3.90;99.90
13642;DHT22;6894;52.196;9.904;2022-12-18T04:58:02;-3.80;99.90
13642;DHT22;6894;52.196;9.904;2022-12-18T05:00:29;-3.70;99.90
13642;DHT22;6894;52.196;9.904;2022-12-18T05:02:55;-3.60;99.90
13642;DHT22;6894;52.196;9.904;2022-12-18T05:05:22;-3.40;1.00
13642;DHT22;6894;52.196;9.904;2022-12-18T05:07:49;-3.30;1.00
13642;DHT22;6894;52.196;9.904;2022-12-18T05:10:17;-3.20;99.90
13642;DHT22;6894;52.196;9.904;2022-12-18T05:12:44;-3.20;1.00
13642;DHT22;6894;52.196;9.904;2022-12-18T05:15:26;-3.10;99.90
13642;DHT22;6894;52.196;9.904;2022-12-18T05:17:52;-3.10;1.00
13642;DHT22;6894;52.196;9.904;2022-12-18T05:20:19;-3.20;1.00
13642;DHT22;6894;52.196;9.904;2022-12-18T05:22:46;-3.30;99.90
13642;DHT22;6894;52.196;9.904;2022-12-18T05:25:13;-3.30;99.90
13642;DHT22;6894;52.196;9.904;2022-12-18T05:27:41;-3.40;1.00
13642;DHT22;6894;52.196;9.904;2022-12-18T05:30:09;-3.40;1.00
13642;DHT22;6894;52.196;9.904;2022-12-18T05:32:36;-3.50;1.00
13642;DHT22;6894;52.196;9.904;2022-12-18T05:35:05;-3.50;1.00
13642;DHT22;6894;52.196;9.904;2022-12-18T05:37:32;-3.60;1.00
13642;DHT22;6894;52.196;9.904;2022-12-18T05:39:59;-3.60;99.90
13642;DHT22;6894;52.196;9.904;2022-12-18T05:42:26;-3.60;99.90
13642;DHT22;6894;52.196;9.904;2022-12-18T05:44:54;-3.60;99.90
13642;DHT22;6894;52.196;9.904;2022-12-18T05:47:20;-3.60;99.90
13642;DHT22;6894;52.196;9.904;2022-12-18T05:49:47;-3.60;99.90
13642;DHT22;6894;52.196;9.904;2022-12-18T05:52:14;-3.70;99.90
13642;DHT22;6894;52.196;9.904;2022-12-18T05:54:41;-3.80;99.90
13642;DHT22;6894;52.196;9.904;2022-12-18T05:57:07;-3.70;99.90
13642;DHT22;6894;52.196;9.904;2022-12-18T05:59:34;-3.70;1.00
13642;DHT22;6894;52.196;9.904;2022-12-18T06:02:02;-3.70;1.00
13642;DHT22;6894;52.196;9.904;2022-12-18T06:04:29;-3.60;1.00
13642;DHT22;6894;52.196;9.904;2022-12-18T06:06:56;-3.20;99.90
13642;DHT22;6894;52.196;9.904;2022-12-18T06:09:23;-3.50;99.90
13642;DHT22;6894;52.196;9.904;2022-12-18T06:11:51;-3.50;99.90
13642;DHT22;6894;52.196;9.904;2022-12-18T06:14:18;-3.50;99.90
13642;DHT22;6894;52.196;9.904;2022-12-18T06:16:45;-3.60;1.00
13642;DHT22;6894;52.196;9.904;2022-12-18T06:19:16;-3.60;30.10
13642;DHT22;6894;52.196;9.904;2022-12-18T06:21:42;-3.60;99.90
13642;DHT22;6894;52.196;9.904;2022-12-18T06:24:09;-3.60;1.00
13642;DHT22;6894;52.196;9.904;2022-12-18T06:26:37;-3.60;91.50
13642;DHT22;6894;52.196;9.904;2022-12-18T06:29:05;-3.50;99.90
13642;DHT22;6894;52.196;9.904;2022-12-18T06:31:31;-3.40;99.90
13642;DHT22;6894;52.196;9.904;2022-12-18T06:33:58;-3.40;56.00
13642;DHT22;6894;52.196;9.904;2022-12-18T06:36:26;-3.30;1.00
13642;DHT22;6894;52.196;9.904;2022-12-18T06:38:56;-3.30;1.00
13642;DHT22;6894;52.196;9.904;2022-12-18T06:41:24;-3.30;1.00
13642;DHT22;6894;52.196;9.904;2022-12-18T06:43:50;-3.40;1.00
13642;DHT22;6894;52.196;9.904;2022-12-18T06:46:17;-3.10;1.00
13642;DHT22;6894;52.196;9.904;2022-12-18T06:48:46;-3.50;99.90
13642;DHT22;6894;52.196;9.904;2022-12-18T06:51:16;-3.60;99.90
13642;DHT22;6894;52.196;9.904;2022-12-18T06:53:44;-3.70;99.90
13642;DHT22;6894;52.196;9.904;2022-12-18T06:56:11;-3.70;1.00
13642;DHT22;6894;52.196;9.904;2022-12-18T06:58:38;-3.70;1.00
13642;DHT22;6894;52.196;9.904;2022-12-18T07:01:07;-3.80;1.00
13642;DHT22;6894;52.196;9.904;2022-12-18T07:03:34;-3.80;1.00
13642;DHT22;6894;52.196;9.904;2022-12-18T07:06:01;-3.90;1.00
13642;DHT22;6894;52.196;9.904;2022-12-18T07:08:28;-3.90;1.00
13642;DHT22;6894;52.196;9.904;2022-12-18T07:10:57;-3.90;1.00
13642;DHT22;6894;52.196;9.904;2022-12-18T07:13:24;-3.90;1.00
13642;DHT22;6894;52.196;9.904;2022-12-18T07:15:52;-3.80;99.90
13642;DHT22;6894;52.196;9.904;2022-12-18T07:18:18;-3.70;99.90
13642;DHT22;6894;52.196;9.904;2022-12-18T07:20:45;-3.70;99.90
13642;DHT22;6894;52.196;9.904;2022-12-18T07:23:12;-3.70;99.90
13642;DHT22;6894;52.196;9.904;2022-12-18T07:25:39;-3.60;11.10
13642;DHT22;6894;52.196;9.904;2022-12-18T07:28:07;-3.60;99.90
13642;DHT22;6894;52.196;9.904;2022-12-18T07:30:36;-3.50;99.90
13642;DHT22;6894;52.196;9.904;2022-12-18T07:33:03;-3.50;99.90
13642;DHT22;6894;52.196;9.904;2022-12-18T07:35:30;-3.50;99.90
13642;DHT22;6894;52.196;9.904;2022-12-18T07:37:56;-3.30;88.80
13642;DHT22;6894;52.196;9.904;2022-12-18T07:40:23;-3.20;99.90
13642;DHT22;6894;52.196;9.904;2022-12-18T07:42:50;-3.30;99.90
13642;DHT22;6894;52.196;9.904;2022-12-18T07:45:18;-3.50;99.90
13642;DHT22;6894;52.196;9.904;2022-12-18T07:47:45;-3.00;99.90
13642;DHT22;6894;52.196;9.904;2022-12-18T07:50:11;-2.80;1.00
13642;DHT22;6894;52.196;9.904;2022-12-18T07:52:38;-2.70;1.00
13642;DHT22;6894;52.196;9.904;2022-12-18T07:55:05;-2.60;2.20
13642;DHT22;6894;52.196;9.904;2022-12-18T07:57:32;-2.60;1.00
13642;DHT22;6894;52.196;9.904;2022-12-18T07:59:59;-2.50;1.00
13642;DHT22;6894;52.196;9.904;2022-12-18T08:02:30;-1.90;1.00
13642;DHT22;6894;52.196;9.904;2022-12-18T08:04:57;-2.40;99.90
13642;DHT22;6894;52.196;9.904;2022-12-18T08:07:24;-2.30;1.00
13642;DHT22;6894;52.196;9.904;2022-12-18T08:09:51;-2.20;1.00
13642;DHT22;6894;52.196;9.904;2022-12-18T08:12:17;-2.10;99.90
13642;DHT22;6894;52.196;9.904;2022-12-18T08:14:44;-2.00;24.90
13642;DHT22;6894;52.196;9.904;2022-12-18T08:17:11;-2.00;1.00
13642;DHT22;6894;52.196;9.904;2022-12-18T08:19:39;-1.90;1.00
13642;DHT22;6894;52.196;9.904;2022-12-18T08:22:06;-1.80;99.90
13642;DHT22;6894;52.196;9.904;2022-12-18T08:24:32;-1.70;1.00
13642;DHT22;6894;52.196;9.904;2022-12-18T08:26:59;-1.70;1.00
13642;DHT22;6894;52.196;9.904;2022-12-18T08:29:26;-1.40;1.00
13642;DHT22;6894;52.196;9.904;2022-12-18T08:31:53;-1.50;1.00
13642;DHT22;6894;52.196;9.904;2022-12-18T08:34:20;-1.30;99.90
13642;DHT22;6894;52.196;9.904;2022-12-18T08:36:48;-1.40;1.00
13642;DHT22;6894;52.196;9.904;2022-12-18T08:39:15;-1.20;1.00
13642;DHT22;6894;52.196;9.904;2022-12-18T08:41:42;-1.00;61.40
13642;DHT22;6894;52.196;9.904;2022-12-18T08:44:28;-0.80;1.00
13642;DHT22;6894;52.196;9.904;2022-12-18T08:47:03;-0.70;1.00
13642;DHT22;6894;52.196;9.904;2022-12-18T08:49:30;-0.50;1.00
13642;DHT22;6894;52.196;9.904;2022-12-18T08:51:58;-0.30;1.00
13642;DHT22;6894;52.196;9.904;2022-12-18T08:54:25;-0.20;1.00
13642;DHT22;6894;52.196;9.904;2022-12-18T08:56:52;-0.10;1.00
13642;DHT22;6894;52.196;9.904;2022-12-18T08:59:19;0.00;1.00
13642;DHT22;6894;52.196;9.904;2022-12-18T09:01:47;0.10;1.00
13642;DHT22;6894;52.196;9.904;2022-12-18T09:04:13;0.10;1.00
13642;DHT22;6894;52.196;9.904;2022-12-18T09:06:40;0.30;1.00
13642;DHT22;6894;52.196;9.904;2022-12-18T09:09:09;0.50;1.00
13642;DHT22;6894;52.196;9.904;2022-12-18T09:11:36;0.50;1.00
13642;DHT22;6894;52.196;9.904;2022-12-18T09:14:03;0.50;1.00
13642;DHT22;6894;52.196;9.904;2022-12-18T09:16:31;0.60;99.90
13642;DHT22;6894;52.196;9.904;2022-12-18T09:19:00;0.70;99.90
13642;DHT22;6894;52.196;9.904;2022-12-18T09:21:29;1.10;1.00
13642;DHT22;6894;52.196;9.904;2022-12-18T09:23:56;1.30;1.00
13642;DHT22;6894;52.196;9.904;2022-12-18T09:26:26;1.60;1.00
13642;DHT22;6894;52.196;9.904;2022-12-18T09:28:53;1.80;1.00
13642;DHT22;6894;52.196;9.904;2022-12-18T09:31:21;1.80;99.90
13642;DHT22;6894;52.196;9.904;2022-12-18T09:33:48;1.60;99.90
13642;DHT22;6894;52.196;9.904;2022-12-18T09:36:16;1.70;1.00
13642;DHT22;6894;52.196;9.904;2022-12-18T09:38:43;1.80;1.00
13642;DHT22;6894;52.196;9.904;2022-12-18T09:41:32;1.90;1.00
13642;DHT22;6894;52.196;9.904;2022-12-18T09:44:03;1.90;99.90
13642;DHT22;6894;52.196;9.904;2022-12-18T09:46:36;2.10;99.90
13642;DHT22;6894;52.196;9.904;2022-12-18T09:49:09;1.80;56.40
13642;DHT22;6894;52.196;9.904;2022-12-18T09:51:42;2.00;99.90
13642;DHT22;6894;52.196;9.904;2022-12-18T09:54:12;2.20;1.00
13642;DHT22;6894;52.196;9.904;2022-12-18T09:56:43;2.40;99.90
13642;DHT22;6894;52.196;9.904;2022-12-18T09:59:18;2.60;63.00
13642;DHT22;6894;52.196;9.904;2022-12-18T10:01:45;2.50;1.00
13642;DHT22;6894;52.196;9.904;2022-12-18T10:04:12;2.50;1.00
13642;DHT22;6894;52.196;9.904;2022-12-18T10:06:44;2.70;1.00
13642;DHT22;6894;52.196;9.904;2022-12-18T10:09:19;2.80;1.00
13642;DHT22;6894;52.196;9.904;2022-12-18T10:11:55;2.90;1.00
13642;DHT22;6894;52.196;9.904;2022-12-18T10:14:32;3.10;1.00
13642;DHT22;6894;52.196;9.904;2022-12-18T10:17:05;2.90;1.00
13642;DHT22;6894;52.196;9.904;2022-12-18T10:19:39;2.80;1.00
13642;DHT22;6894;52.196;9.904;2022-12-18T10:22:15;2.90;1.00
13642;DHT22;6894;52.196;9.904;2022-12-18T10:24:50;2.50;1.00
13642;DHT22;6894;52.196;9.904;2022-12-18T10:27:23;2.30;1.00
13642;DHT22;6894;52.196;9.904;2022-12-18T10:29:51;2.00;1.00
13642;DHT22;6894;52.196;9.904;2022-12-18T10:32:20;1.80;1.00
13642;DHT22;6894;52.196;9.904;2022-12-18T10:34:48;1.80;99.90
13642;DHT22;6894;52.196;9.904;2022-12-18T10:37:17;1.90;99.90
13642;DHT22;6894;52.196;9.904;2022-12-18T10:39:45;2.20;99.90
13642;DHT22;6894;52.196;9.904;2022-12-18T10:42:17;2.40;99.90
13642;DHT22;6894;52.196;9.904;2022-12-18T10:44:45;2.60;1.00
13642;DHT22;6894;52.196;9.904;2022-12-18T10:47:15;2.90;1.00
13642;DHT22;6894;52.196;9.904;2022-12-18T10:49:47;3.10;1.00
13642;DHT22;6894;52.196;9.904;2022-12-18T10:52:17;3.50;1.00
13642;DHT22;6894;52.196;9.904;2022-12-18T10:54:49;3.80;99.90
13642;DHT22;6894;52.196;9.904;2022-12-18T10:57:28;4.30;99.90
13642;DHT22;6894;52.196;9.904;2022-12-18T10:59:59;4.70;99.90
13642;DHT22;6894;52.196;9.904;2022-12-18T11:02:34;5.10;1.00
13642;DHT22;6894;52.196;9.904;2022-12-18T11:05:01;5.20;1.00
13642;DHT22;6894;52.196;9.904;2022-12-18T11:07:47;5.10;1.00
13642;DHT22;6894;52.196;9.904;2022-12-18T11:10:17;5.00;1.00
13642;DHT22;6894;52.196;9.904;2022-12-18T11:12:44;4.80;1.00
13642;DHT22;6894;52.196;9.904;2022-12-18T11:15:17;4.70;1.00
13642;DHT22;6894;52.196;9.904;2022-12-18T11:17:47;5.30;1.00
13642;DHT22;6894;52.196;9.904;2022-12-18T11:20:23;5.60;1.00
13642;DHT22;6894;52.196;9.904;2022-12-18T11:22:56;5.50;1.00
13642;DHT22;6894;52.196;9.904;2022-12-18T11:25:24;4.90;1.00
13642;DHT22;6894;52.196;9.904;2022-12-18T11:27:52;4.50;1.00
13642;DHT22;6894;52.196;9.904;2022-12-18T11:30:26;4.30;1.00
13642;DHT22;6894;52.196;9.904;2022-12-18T11:32:56;4.40;1.00
13642;DHT22;6894;52.196;9.904;2022-12-18T11:35:42;4.20;1.00
13642;DHT22;6894;52.196;9.904;2022-12-18T11:38:21;3.70;1.00
13642;DHT22;6894;52.196;9.904;2022-12-18T11:40:55;3.30;1.00
13642;DHT22;6894;52.196;9.904;2022-12-18T11:43:27;3.40;98.10
13642;DHT22;6894;52.196;9.904;2022-12-18T11:46:00;3.60;1.00
13642;DHT22;6894;52.196;9.904;2022-12-18T11:48:32;4.10;1.00
13642;DHT22;6894;52.196;9.904;2022-12-18T11:51:01;4.80;1.00
13642;DHT22;6894;52.196;9.904;2022-12-18T11:53:30;5.30;1.00
13642;DHT22;6894;52.196;9.904;2022-12-18T11:56:03;5.40;1.00
13642;DHT22;6894;52.196;9.904;2022-12-18T11:58:46;5.80;1.00
13642;DHT22;6894;52.196;9.904;2022-12-18T12:01:22;6.50;1.00
13642;DHT22;6894;52.196;9.904;2022-12-18T12:04:15;6.60;99.90
13642;DHT22;6894;52.196;9.904;2022-12-18T12:06:59;6.00;99.90
13642;DHT22;6894;52.196;9.904;2022-12-18T12:09:34;5.60;99.90
13642;DHT22;6894;52.196;9.904;2022-12-18T12:12:14;5.50;99.90
13642;DHT22;6894;52.196;9.904;2022-12-18T12:14:51;5.30;99.90
13642;DHT22;6894;52.196;9.904;2022-12-18T12:17:25;5.00;99.90
13642;DHT22;6894;52.196;9.904;2022-12-18T12:19:58;4.30;1.00
13642;DHT22;6894;52.196;9.904;2022-12-18T12:22:35;4.00;1.00
13642;DHT22;6894;52.196;9.904;2022-12-18T12:25:21;3.60;1.00
13642;DHT22;6894;52.196;9.904;2022-12-18T12:28:01;3.10;38.60
13642;DHT22;6894;52.196;9.904;2022-12-18T12:30:35;2.90;97.40
13642;DHT22;6894;52.196;9.904;2022-12-18T12:33:15;2.80;99.90
13642;DHT22;6894;52.196;9.904;2022-12-18T12:35:47;2.60;99.90
13642;DHT22;6894;52.196;9.904;2022-12-18T12:38:21;2.40;99.90
13642;DHT22;6894;52.196;9.904;2022-12-18T12:40:52;2.40;99.90
13642;DHT22;6894;52.196;9.904;2022-12-18T12:43:28;2.30;1.00
13642;DHT22;6894;52.196;9.904;2022-12-18T12:45:58;2.10;1.00
13642;DHT22;6894;52.196;9.904;2022-12-18T12:48:41;2.00;1.00
13642;DHT22;6894;52.196;9.904;2022-12-18T12:51:14;1.90;1.00
13642;DHT22;6894;52.196;9.904;2022-12-18T12:53:42;1.70;99.90
13642;DHT22;6894;52.196;9.904;2022-12-18T12:56:11;1.60;1.00
13642;DHT22;6894;52.196;9.904;2022-12-18T12:58:46;1.60;1.00
13642;DHT22;6894;52.196;9.904;2022-12-18T13:01:27;1.60;1.00
13642;DHT22;6894;52.196;9.904;2022-12-18T13:04:06;1.60;99.90
13642;DHT22;6894;52.196;9.904;2022-12-18T13:06:42;1.50;1.00
13642;DHT22;6894;52.196;9.904;2022-12-18T13:09:12;1.40;1.00
13642;DHT22;6894;52.196;9.904;2022-12-18T13:11:40;1.40;1.00
13642;DHT22;6894;52.196;9.904;2022-12-18T13:14:31;1.30;99.90
13642;DHT22;6894;52.196;9.904;2022-12-18T13:17:15;1.30;99.90
13642;DHT22;6894;52.196;9.904;2022-12-18T13:19:44;1.20;1.00
13642;DHT22;6894;52.196;9.904;2022-12-18T13:22:22;0.90;1.00
13642;DHT22;6894;52.196;9.904;2022-12-18T13:24:50;0.60;1.00
13642;DHT22;6894;52.196;9.904;2022-12-18T13:27:55;0.40;1.00
13642;DHT22;6894;52.196;9.904;2022-12-18T13:30:48;0.30;99.90
13642;DHT22;6894;52.196;9.904;2022-12-18T13:33:41;0.20;1.00
13642;DHT22;6894;52.196;9.904;2022-12-18T13:36:31;0.10;1.00
13642;DHT22;6894;52.196;9.904;2022-12-18T13:39:34;0.10;1.00
13642;DHT22;6894;52.196;9.904;2022-12-18T13:42:37;0.10;1.00
13642;DHT22;6894;52.196;9.904;2022-12-18T13:45:41;0.00;1.00
13642;DHT22;6894;52.196;9.904;2022-12-18T13:48:16;0.00;1.00
13642;DHT22;6894;52.196;9.904;2022-12-18T13:50:49;-0.10;1.00
13642;DHT22;6894;52.196;9.904;2022-12-18T13:53:21;-0.20;99.90
13642;DHT22;6894;52.196;9.904;2022-12-18T13:55:49;-0.30;1.00
13642;DHT22;6894;52.196;9.904;2022-12-18T13:58:16;-0.40;1.00
13642;DHT22;6894;52.196;9.904;2022-12-18T14:00:44;-0.40;1.00
13642;DHT22;6894;52.196;9.904;2022-12-18T14:03:22;-0.60;99.90
13642;DHT22;6894;52.196;9.904;2022-12-18T14:05:57;-0.60;1.00
13642;DHT22;6894;52.196;9.904;2022-12-18T14:08:29;-0.70;56.80
13642;DHT22;6894;52.196;9.904;2022-12-18T14:10:58;-0.70;1.00
13642;DHT22;6894;52.196;9.904;2022-12-18T14:13:30;-0.80;59.50
13642;DHT22;6894;52.196;9.904;2022-12-18T14:15:57;-0.80;1.00
13642;DHT22;6894;52.196;9.904;2022-12-18T14:18:29;-0.80;1.00
13642;DHT22;6894;52.196;9.904;2022-12-18T14:21:01;-0.90;99.90
13642;DHT22;6894;52.196;9.904;2022-12-18T14:23:36;-0.90;99.90
13642;DHT22;6894;52.196;9.904;2022-12-18T14:26:20;-0.70;1.00
13642;DHT22;6894;52.196;9.904;2022-12-18T14:28:47;-0.80;1.00
13642;DHT22;6894;52.196;9.904;2022-12-18T14:31:18;-0.80;1.00
13642;DHT22;6894;52.196;9.904;2022-12-18T14:33:45;-0.90;1.00
13642;DHT22;6894;52.196;9.904;2022-12-18T14:36:16;-0.80;1.00
13642;DHT22;6894;52.196;9.904;2022-12-18T14:38:49;-1.00;1.00
13642;DHT22;6894;52.196;9.904;2022-12-18T14:41:17;-1.00;99.90
13642;DHT22;6894;52.196;9.904;2022-12-18T14:43:47;-1.10;99.90
13642;DHT22;6894;52.196;9.904;2022-12-18T14:46:35;-1.10;99.90
13642;DHT22;6894;52.196;9.904;2022-12-18T14:49:03;-1.20;1.00
13642;DHT22;6894;52.196;9.904;2022-12-18T14:51:32;-1.20;1.00
13642;DHT22;6894;52.196;9.904;2022-12-18T14:54:02;-1.30;1.00
13642;DHT22;6894;52.196;9.904;2022-12-18T14:56:32;-1.30;1.00
13642;DHT22;6894;52.196;9.904;2022-12-18T14:59:01;-1.30;1.00
13642;DHT22;6894;52.196;9.904;2022-12-18T15:01:31;-1.30;1.00
13642;DHT22;6894;52.196;9.904;2022-12-18T15:04:00;-1.30;1.00
13642;DHT22;6894;52.196;9.904;2022-12-18T15:06:33;-1.30;1.00
13642;DHT22;6894;52.196;9.904;2022-12-18T15:09:04;-1.30;1.00
13642;DHT22;6894;52.196;9.904;2022-12-18T15:11:43;-1.30;1.00
13642;DHT22;6894;52.196;9.904;2022-12-18T15:14:34;-1.30;1.00
13642;DHT22;6894;52.196;9.904;2022-12-18T15:17:04;-1.30;1.00
13642;DHT22;6894;52.196;9.904;2022-12-18T15:19:36;-1.30;99.90
13642;DHT22;6894;52.196;9.904;2022-12-18T15:22:04;-1.30;1.00
13642;DHT22;6894;52.196;9.904;2022-12-18T15:24:32;-1.30;1.00
13642;DHT22;6894;52.196;9.904;2022-12-18T15:27:00;-1.40;1.00
13642;DHT22;6894;52.196;9.904;2022-12-18T15:29:31;-1.50;1.00
13642;DHT22;6894;52.196;9.904;2022-12-18T15:32:00;-1.50;99.90
13642;DHT22;6894;52.196;9.904;2022-12-18T15:34:27;-1.40;99.90
13642;DHT22;6894;52.196;9.904;2022-12-18T15:36:54;-1.50;1.00
13642;DHT22;6894;52.196;9.904;2022-12-18T15:39:21;-1.50;1.00
13642;DHT22;6894;52.196;9.904;2022-12-18T15:41:50;-1.50;1.00
13642;DHT22;6894;52.196;9.904;2022-12-18T15:44:34;-1.60;1.00
13642;DHT22;6894;52.196;9.904;2022-12-18T15:47:02;-1.60;99.90
13642;DHT22;6894;52.196;9.904;2022-12-18T15:49:28;-1.40;99.90
13642;DHT22;6894;52.196;9.904;2022-12-18T15:51:58;-1.60;1.00
13642;DHT22;6894;52.196;9.904;2022-12-18T15:54:26;-1.70;1.00
13642;DHT22;6894;52.196;9.904;2022-12-18T15:57:14;-1.70;1.00
13642;DHT22;6894;52.196;9.904;2022-12-18T15:59:51;-1.70;1.00
13642;DHT22;6894;52.196;9.904;2022-12-18T16:02:20;-1.70;1.00
13642;DHT22;6894;52.196;9.904;2022-12-18T16:04:48;-1.50;1.00
13642;DHT22;6894;52.196;9.904;2022-12-18T16:07:15;-1.80;27.20
13642;DHT22;6894;52.196;9.904;2022-12-18T16:09:42;-1.80;99.90
13642;DHT22;6894;52.196;9.904;2022-12-18T16:12:17;-1.80;99.90
13642;DHT22;6894;52.196;9.904;2022-12-18T16:14:44;-1.80;99.90
13642;DHT22;6894;52.196;9.904;2022-12-18T16:17:13;-1.80;99.90
13642;DHT22;6894;52.196;9.904;2022-12-18T16:19:43;-1.90;99.90
13642;DHT22;6894;52.196;9.904;2022-12-18T16:22:18;-1.90;99.90
13642;DHT22;6894;52.196;9.904;2022-12-18T16:24:46;-1.90;1.00